createdAt,value
2022-08-17T00:01:32.753Z,57.93
2022-08-17T00:04:19.066Z,58.67
2022-08-17T00:06:46.060Z,58.37
2022-08-17T00:09:18.977Z,63.77
2022-08-17T00:12:41.556Z,60.13
2022-08-17T00:14:35.045Z,59.80
2022-08-17T00:17:03.621Z,62.50
2022-08-17T00:19:29.989Z,55.10
2022-08-17T00:22:34.267Z,57.70
2022-08-17T00:24:46.797Z,60.10
2022-08-17T00:27:13.223Z,51.90
2022-08-17T00:29:39.686Z,60.23
2022-08-17T00:33:15.012Z,57.20
2022-08-17T00:34:53.101Z,59.63
2022-08-17T00:37:19.550Z,59.47
2022-08-17T00:39:46.081Z,60.00
2022-08-17T00:42:18.154Z,54.43
2022-08-17T00:44:45.746Z,50.50
2022-08-17T00:47:12.236Z,52.30
2022-08-17T00:49:38.654Z,49.60
2022-08-17T00:52:15.281Z,50.13
2022-08-17T00:54:44.774Z,52.03
2022-08-17T00:57:17.391Z,48.27
2022-08-17T00:59:51.145Z,54.17
2022-08-17T01:02:34.881Z,49.30
2022-08-17T01:05:12.417Z,56.20
2022-08-17T01:07:39.268Z,53.87
2022-08-17T01:10:58.228Z,51.43
2022-08-17T01:12:56.729Z,50.33
2022-08-17T01:15:23.380Z,47.20
2022-08-17T01:17:50.115Z,49.83
2022-08-17T01:20:16.887Z,47.50
2022-08-17T01:22:43.385Z,49.87
2022-08-17T01:25:12.707Z,49.20
2022-08-17T01:27:40.642Z,50.40
2022-08-17T01:30:57.329Z,51.00
2022-08-17T01:32:56.552Z,48.47
2022-08-17T01:35:22.996Z,47.37
2022-08-17T01:37:49.810Z,50.27
2022-08-17T01:40:31.184Z,46.10
2022-08-17T01:43:12.182Z,51.57
2022-08-17T01:45:45.717Z,47.23
2022-08-17T01:48:13.183Z,52.87
2022-08-17T01:50:42.787Z,49.10
2022-08-17T01:53:13.811Z,50.87
2022-08-17T01:55:45.678Z,49.43
2022-08-17T01:58:12.402Z,42.50
2022-08-17T02:00:59.353Z,49.10
2022-08-17T02:03:26.802Z,44.67
2022-08-17T02:05:53.350Z,39.30
2022-08-17T02:08:21.465Z,38.93
2022-08-17T02:11:11.378Z,35.57
2022-08-17T02:13:38.289Z,37.37
2022-08-17T02:16:04.731Z,33.10
2022-08-17T02:18:31.155Z,42.03
2022-08-17T02:20:57.613Z,34.57
2022-08-17T02:23:26.620Z,34.37
2022-08-17T02:25:57.612Z,27.93
2022-08-17T02:28:24.145Z,25.37
2022-08-17T02:31:02.254Z,32.53
2022-08-17T02:33:42.659Z,25.60
2022-08-17T02:36:11.995Z,34.77
2022-08-17T02:38:39.766Z,24.93
2022-08-17T02:41:06.653Z,20.83
2022-08-17T02:43:33.461Z,23.00
2022-08-17T02:45:59.983Z,24.53
2022-08-17T02:48:31.596Z,20.43
2022-08-17T02:50:59.674Z,20.80
2022-08-17T02:53:26.513Z,23.13
2022-08-17T02:55:53.384Z,25.57
2022-08-17T02:58:34.675Z,20.33
2022-08-17T03:01:03.559Z,24.83
2022-08-17T03:03:30.024Z,25.90
2022-08-17T03:05:56.514Z,21.67
2022-08-17T03:08:23.351Z,25.70
2022-08-17T03:10:50.417Z,24.90
2022-08-17T03:13:17.463Z,23.97
2022-08-17T03:15:45.803Z,24.57
2022-08-17T03:18:24.108Z,21.00
2022-08-17T03:20:55.850Z,23.60
2022-08-17T03:23:24.104Z,23.33
2022-08-17T03:25:53.786Z,20.20
2022-08-17T03:28:21.738Z,21.73
2022-08-17T03:30:48.301Z,19.37
2022-08-17T03:33:14.825Z,22.17
2022-08-17T03:35:41.443Z,17.10
2022-08-17T03:38:10.463Z,16.93
2022-08-17T03:40:56.361Z,18.80
2022-08-17T03:43:25.213Z,17.17
2022-08-17T03:46:28.943Z,18.37
2022-08-17T03:49:15.274Z,12.90
2022-08-17T03:52:00.563Z,11.70
2022-08-17T03:54:45.472Z,15.60
2022-08-17T03:57:12.485Z,11.57
2022-08-17T03:59:39.663Z,13.07
2022-08-17T04:02:22.764Z,13.17
2022-08-17T04:04:50.992Z,14.33
2022-08-17T04:07:19.833Z,11.50
2022-08-17T04:09:46.393Z,18.67
2022-08-17T04:12:16.107Z,14.10
2022-08-17T04:14:52.269Z,16.77
2022-08-17T04:17:21.625Z,15.47
2022-08-17T04:19:48.165Z,18.23
2022-08-17T04:22:31.232Z,19.30
2022-08-17T04:25:15.522Z,20.37
2022-08-17T04:27:41.983Z,23.93
2022-08-17T04:30:09.595Z,22.17
2022-08-17T04:33:05.865Z,20.17
2022-08-17T04:35:36.796Z,23.70
2022-08-17T04:38:03.727Z,18.60
2022-08-17T04:40:48.947Z,19.90
2022-08-17T04:43:18.974Z,22.77
2022-08-17T04:45:56.684Z,22.23
2022-08-17T04:48:36.063Z,21.63
2022-08-17T04:51:06.082Z,22.47
2022-08-17T04:53:32.587Z,26.07
2022-08-17T04:55:59.136Z,23.93
2022-08-17T04:58:25.584Z,22.03
2022-08-17T05:00:52.067Z,22.63
2022-08-17T05:03:18.729Z,23.77
2022-08-17T05:05:49.584Z,23.83
2022-08-17T05:08:19.123Z,23.57
2022-08-17T05:10:46.775Z,24.30
2022-08-17T05:13:16.966Z,24.93
2022-08-17T05:15:47.670Z,24.17
2022-08-17T05:18:15.538Z,26.90
2022-08-17T05:20:42.540Z,30.53
2022-08-17T05:23:13.725Z,34.07
2022-08-17T05:25:42.982Z,28.67
2022-08-17T05:28:14.418Z,34.03
2022-08-17T05:30:43.256Z,30.53
2022-08-17T05:33:16.537Z,32.00
2022-08-17T05:35:46.959Z,29.77
2022-08-17T05:38:16.089Z,30.97
2022-08-17T05:40:43.518Z,30.20
2022-08-17T05:43:13.123Z,28.93
2022-08-17T05:45:55.907Z,33.57
2022-08-17T05:48:39.524Z,31.53
2022-08-17T05:51:24.399Z,31.77
2022-08-17T05:54:06.108Z,32.80
2022-08-17T05:56:52.104Z,30.60
2022-08-17T05:59:40.381Z,29.63
2022-08-17T06:02:21.968Z,32.87
2022-08-17T06:05:14.305Z,28.60
2022-08-17T06:07:58.842Z,34.83
2022-08-17T06:10:43.803Z,30.40
2022-08-17T06:13:29.341Z,29.00
2022-08-17T06:16:05.007Z,32.03
2022-08-17T06:19:02.064Z,30.00
2022-08-17T06:21:34.303Z,29.27
2022-08-17T06:24:23.880Z,34.47
2022-08-17T06:26:51.006Z,32.20
2022-08-17T06:29:23.682Z,31.63
2022-08-17T06:31:50.973Z,35.80
2022-08-17T06:34:17.371Z,32.80
2022-08-17T06:36:55.753Z,34.83
2022-08-17T06:39:52.723Z,33.27
2022-08-17T06:42:59.919Z,30.20
2022-08-17T06:45:20.132Z,33.43
2022-08-17T06:47:59.341Z,30.37
2022-08-17T06:50:49.196Z,32.07
2022-08-17T06:53:27.335Z,31.33
2022-08-17T06:56:10.352Z,27.33
2022-08-17T06:58:40.117Z,26.87
2022-08-17T07:01:17.871Z,29.20
2022-08-17T07:03:54.742Z,29.57
2022-08-17T07:06:26.183Z,25.50
2022-08-17T07:09:08.222Z,22.80
2022-08-17T07:11:53.893Z,19.80
2022-08-17T07:14:37.953Z,17.53
2022-08-17T07:17:09.317Z,12.67
2022-08-17T07:19:40.640Z,12.87
2022-08-17T07:22:23.938Z,13.70
2022-08-17T07:25:02.343Z,11.53
2022-08-17T07:27:51.178Z,10.70
2022-08-17T07:30:23.002Z,10.53
2022-08-17T07:33:02.299Z,10.43
2022-08-17T07:35:37.731Z,10.03
2022-08-17T07:38:25.330Z,11.93
2022-08-17T07:41:05.939Z,12.07
2022-08-17T07:43:41.219Z,13.20
2022-08-17T07:46:42.177Z,10.80
2022-08-17T07:49:08.517Z,13.23
2022-08-17T07:51:50.453Z,12.90
2022-08-17T07:54:22.129Z,12.83
2022-08-17T07:56:52.418Z,15.40
2022-08-17T07:59:34.116Z,14.87
2022-08-17T08:02:06.318Z,15.83
2022-08-17T08:05:00.495Z,17.53
2022-08-17T08:07:52.244Z,16.20
2022-08-17T08:10:45.323Z,14.30
2022-08-17T08:13:23.273Z,16.20
2022-08-17T08:15:55.701Z,16.63
2022-08-17T08:18:54.966Z,12.73
2022-08-17T08:21:29.132Z,11.93
2022-08-17T08:24:17.802Z,14.13
2022-08-17T08:27:08.015Z,12.40
2022-08-17T08:30:04.813Z,14.67
2022-08-17T08:32:54.029Z,11.80
2022-08-17T08:35:37.241Z,13.67
2022-08-17T08:38:26.837Z,12.93
2022-08-17T08:41:16.468Z,12.60
2022-08-17T08:44:00.710Z,14.63
2022-08-17T08:46:47.099Z,11.37
2022-08-17T08:50:01.436Z,12.30
2022-08-17T08:52:39.953Z,13.20
2022-08-17T08:57:43.951Z,12.33
2022-08-17T09:00:24.546Z,13.93
2022-08-17T09:02:50.959Z,14.73
2022-08-17T09:05:56.005Z,14.97
2022-08-17T09:08:44.428Z,13.07
2022-08-17T09:11:26.534Z,14.63
2022-08-17T09:14:21.863Z,14.60
2022-08-17T09:17:12.622Z,11.87
2022-08-17T09:19:53.026Z,14.07
2022-08-17T09:22:31.597Z,12.67
2022-08-17T09:25:15.690Z,12.43
2022-08-17T09:27:57.277Z,13.23
2022-08-17T09:30:36.298Z,13.20
2022-08-17T09:33:07.975Z,14.53
2022-08-17T09:35:49.318Z,10.33
2022-08-17T09:38:21.653Z,11.17
2022-08-17T09:41:15.230Z,13.93
2022-08-17T09:43:53.599Z,9.83
2022-08-17T09:46:28.390Z,11.50
2022-08-17T09:49:07.244Z,10.83
2022-08-17T09:51:48.964Z,12.77
2022-08-17T09:54:44.619Z,10.20
2022-08-17T09:57:32.206Z,10.27
2022-08-17T10:00:17.367Z,10.93
2022-08-17T10:03:21.803Z,10.67
2022-08-17T10:06:10.027Z,10.40
2022-08-17T10:08:52.524Z,12.03
2022-08-17T10:11:48.421Z,11.03
2022-08-17T10:14:44.537Z,12.50
2022-08-17T10:17:24.581Z,12.27
2022-08-17T10:20:20.896Z,15.37
2022-08-17T10:23:13.103Z,15.27
2022-08-17T10:26:04.150Z,12.20
2022-08-17T10:28:38.938Z,16.43
2022-08-17T10:31:33.892Z,11.57
2022-08-17T10:34:28.803Z,12.77
2022-08-17T10:37:14.252Z,12.73
2022-08-17T10:39:52.936Z,13.83
2022-08-17T10:42:33.093Z,13.80
2022-08-17T10:45:06.947Z,12.97
2022-08-17T10:48:05.082Z,14.70
2022-08-17T10:51:01.548Z,12.70
2022-08-17T10:53:38.744Z,15.03
2022-08-17T10:56:13.118Z,15.77
2022-08-17T10:58:55.914Z,17.63
2022-08-17T11:02:04.332Z,17.87
2022-08-17T11:04:36.760Z,23.63
2022-08-17T11:07:13.551Z,16.97
2022-08-17T11:10:17.564Z,15.43
2022-08-17T11:12:52.530Z,21.43
2022-08-17T11:15:42.082Z,19.80
2022-08-17T11:18:38.051Z,19.17
2022-08-17T11:21:25.639Z,21.50
2022-08-17T11:24:18.952Z,22.63
2022-08-17T11:27:02.594Z,20.50
2022-08-17T11:29:56.743Z,22.93
2022-08-17T11:32:47.690Z,20.73
2022-08-17T11:35:31.447Z,20.10
2022-08-17T11:38:17.337Z,21.77
2022-08-17T11:41:02.751Z,20.90
2022-08-17T11:43:49.019Z,26.33
2022-08-17T11:46:51.677Z,25.10
2022-08-17T11:50:01.611Z,24.87
2022-08-17T11:52:47.213Z,21.07
2022-08-17T11:55:36.372Z,23.37
2022-08-17T11:58:23.743Z,25.90
2022-08-17T12:00:57.168Z,19.53
2022-08-17T12:03:33.287Z,20.67
2022-08-17T12:06:07.991Z,21.60
2022-08-17T12:08:43.359Z,21.23
2022-08-17T12:11:57.832Z,23.10
2022-08-17T12:14:20.160Z,24.50
2022-08-17T12:17:39.556Z,17.37
2022-08-17T12:20:15.515Z,23.77
2022-08-17T12:22:54.899Z,24.03
2022-08-17T12:25:32.971Z,23.03
2022-08-17T12:28:06.321Z,21.70
2022-08-17T12:30:34.004Z,22.37
2022-08-17T12:33:00.699Z,21.23
2022-08-17T12:35:33.164Z,21.43
2022-08-17T12:38:01.137Z,22.47
2022-08-17T12:40:33.753Z,19.57
2022-08-17T12:43:19.994Z,22.03
2022-08-17T12:45:56.927Z,21.10
2022-08-17T12:48:25.914Z,23.20
2022-08-17T12:50:59.844Z,19.20
2022-08-17T12:53:30.148Z,23.40
2022-08-17T12:55:58.915Z,20.77
2022-08-17T12:58:30.449Z,20.67
2022-08-17T13:01:02.116Z,20.53
2022-08-17T13:03:36.607Z,21.80
2022-08-17T13:06:11.072Z,21.57
2022-08-17T13:08:48.061Z,21.17
2022-08-17T13:11:14.566Z,20.23
2022-08-17T13:13:43.856Z,21.10
2022-08-17T13:16:14.319Z,23.47
2022-08-17T13:18:42.656Z,25.93
2022-08-17T13:21:18.861Z,23.97
2022-08-17T13:24:11.420Z,23.47
2022-08-17T13:26:45.315Z,26.73
2022-08-17T13:29:26.054Z,25.60
2022-08-17T13:32:16.820Z,23.50
2022-08-17T13:35:11.972Z,26.00
2022-08-17T13:37:40.621Z,26.10
2022-08-17T13:40:08.988Z,27.53
2022-08-17T13:42:51.510Z,27.73
2022-08-17T13:45:35.492Z,26.53
2022-08-17T13:48:13.697Z,28.23
2022-08-17T13:50:59.537Z,28.40
2022-08-17T13:53:31.343Z,28.33
2022-08-17T13:56:03.253Z,27.30
2022-08-17T13:58:35.948Z,27.23
2022-08-17T14:01:52.840Z,28.77
2022-08-17T14:04:23.947Z,34.07
2022-08-17T14:06:58.031Z,28.20
2022-08-17T14:09:41.052Z,26.87
2022-08-17T14:12:12.647Z,26.40
2022-08-17T14:14:39.590Z,26.07
2022-08-17T14:17:06.123Z,27.60
2022-08-17T14:19:35.076Z,29.33
2022-08-17T14:22:02.045Z,30.80
2022-08-17T14:24:35.184Z,26.30
2022-08-17T14:27:03.620Z,26.70
2022-08-17T14:29:31.625Z,29.53
2022-08-17T14:32:03.195Z,30.00
2022-08-17T14:34:29.689Z,28.33
2022-08-17T14:36:56.993Z,29.77
2022-08-17T14:39:23.423Z,27.73
2022-08-17T14:41:50.225Z,26.50
2022-08-17T14:44:17.026Z,28.30
2022-08-17T14:46:44.680Z,25.27
2022-08-17T14:49:12.945Z,25.77
2022-08-17T14:51:43.709Z,24.77
2022-08-17T14:54:11.584Z,25.93
2022-08-17T14:57:00.874Z,23.67
2022-08-17T14:59:44.718Z,22.63
2022-08-17T15:02:11.472Z,25.03
2022-08-17T15:04:41.971Z,26.37
2022-08-17T15:07:11.575Z,21.60
2022-08-17T15:09:37.946Z,21.27
2022-08-17T15:12:06.577Z,21.40
2022-08-17T15:14:35.420Z,19.67
2022-08-17T15:17:03.523Z,15.13
2022-08-17T15:19:30.268Z,19.30
2022-08-17T15:21:56.779Z,16.47
2022-08-17T15:24:23.285Z,17.70
2022-08-17T15:26:49.920Z,16.60
2022-08-17T15:29:16.316Z,16.50
2022-08-17T15:31:43.380Z,16.70
2022-08-17T15:34:09.779Z,17.30
2022-08-17T15:36:36.258Z,16.80
2022-08-17T15:39:03.103Z,16.10
2022-08-17T15:41:30.097Z,16.70
2022-08-17T15:43:56.922Z,17.07
2022-08-17T15:46:25.700Z,16.50
2022-08-17T15:48:58.278Z,16.90
2022-08-17T15:51:30.932Z,18.50
2022-08-17T15:54:22.191Z,17.20
2022-08-17T15:56:49.093Z,17.03
2022-08-17T15:59:15.525Z,17.97
2022-08-17T16:03:14.651Z,16.00
2022-08-17T16:04:31.023Z,16.17
2022-08-17T16:06:59.401Z,18.40
2022-08-17T16:09:25.818Z,15.03
2022-08-17T16:11:55.326Z,14.27
2022-08-17T16:14:22.613Z,12.50
2022-08-17T16:16:50.484Z,13.47
2022-08-17T16:19:17.035Z,14.47
2022-08-17T16:21:43.501Z,14.33
2022-08-17T16:24:13.268Z,15.00
2022-08-17T16:26:40.467Z,12.53
2022-08-17T16:29:07.782Z,13.10
2022-08-17T16:31:35.975Z,11.47
2022-08-17T16:34:17.006Z,13.10
2022-08-17T16:36:54.835Z,11.17
2022-08-17T16:39:28.103Z,12.37
2022-08-17T16:41:56.072Z,13.47
2022-08-17T16:44:22.818Z,13.90
2022-08-17T16:46:50.197Z,12.23
2022-08-17T16:49:35.088Z,11.53
2022-08-17T16:52:03.437Z,12.37
2022-08-17T16:54:30.258Z,12.30
2022-08-17T16:56:56.672Z,10.73
2022-08-17T16:59:31.240Z,10.60
2022-08-17T17:02:12.841Z,11.80
2022-08-17T17:04:45.983Z,13.20
2022-08-17T17:07:49.766Z,11.80
2022-08-17T17:10:20.440Z,14.90
2022-08-17T17:12:59.564Z,12.23
2022-08-17T17:15:45.176Z,11.13
2022-08-17T17:18:13.675Z,13.80
2022-08-17T17:20:47.733Z,15.90
2022-08-17T17:23:23.367Z,14.33
2022-08-17T17:26:03.630Z,11.10
2022-08-17T17:28:35.754Z,12.50
2022-08-17T17:31:20.545Z,9.77
2022-08-17T17:33:56.966Z,12.13
2022-08-17T17:36:31.047Z,11.77
2022-08-17T17:39:05.259Z,13.70
2022-08-17T17:41:49.173Z,9.83
2022-08-17T17:44:20.084Z,10.97
2022-08-17T17:46:54.848Z,15.13
2022-08-17T17:49:21.460Z,12.13
2022-08-17T17:52:11.150Z,9.90
2022-08-17T17:54:52.244Z,13.82
2022-08-17T17:57:26.672Z,8.80
2022-08-17T18:00:00.875Z,12.00
2022-08-17T18:02:52.147Z,10.90
2022-08-17T18:05:28.173Z,14.00
2022-08-17T18:08:11.241Z,12.73
2022-08-17T18:10:58.361Z,11.83
2022-08-17T18:13:43.756Z,10.80
2022-08-17T18:16:13.001Z,10.93
2022-08-17T18:18:46.038Z,9.87
2022-08-17T18:21:46.464Z,10.57
2022-08-17T18:24:14.024Z,14.00
2022-08-17T18:26:44.966Z,10.93
2022-08-17T18:29:35.759Z,10.07
2022-08-17T18:32:22.825Z,7.17
2022-08-17T18:34:53.839Z,8.77
2022-08-17T18:37:35.049Z,11.00
2022-08-17T18:40:16.663Z,9.67
2022-08-17T18:42:58.567Z,12.10
2022-08-17T18:45:48.415Z,9.73
2022-08-17T18:48:28.351Z,11.93
2022-08-17T18:51:01.491Z,8.33
2022-08-17T18:53:41.473Z,11.13
2022-08-17T18:56:31.502Z,13.33
2022-08-17T18:59:09.827Z,8.13
2022-08-17T19:01:53.334Z,10.00
2022-08-17T19:04:40.041Z,9.20
2022-08-17T19:07:24.646Z,9.50
2022-08-17T19:10:05.327Z,7.83
2022-08-17T19:12:40.043Z,9.50
2022-08-17T19:15:12.446Z,11.23
2022-08-17T19:18:05.604Z,9.67
2022-08-17T19:20:44.446Z,10.70
2022-08-17T19:23:27.531Z,10.03
2022-08-17T19:25:58.488Z,9.07
2022-08-17T19:28:29.584Z,8.20
2022-08-17T19:31:04.075Z,10.50
2022-08-17T19:33:31.538Z,11.00
2022-08-17T19:36:09.995Z,8.73
2022-08-17T19:38:48.666Z,8.20
2022-08-17T19:41:24.227Z,10.60
2022-08-17T19:44:06.216Z,8.70
2022-08-17T19:47:00.912Z,9.57
2022-08-17T19:49:56.982Z,8.87
2022-08-17T19:52:36.282Z,7.80
2022-08-17T19:55:23.521Z,8.03
2022-08-17T19:58:10.216Z,7.27
2022-08-17T20:00:46.922Z,7.53
2022-08-17T20:03:50.409Z,7.10
2022-08-17T20:06:18.708Z,8.10
2022-08-17T20:09:15.057Z,10.43
2022-08-17T20:11:46.875Z,7.97
2022-08-17T20:14:18.767Z,7.77
2022-08-17T20:16:46.562Z,6.67
2022-08-17T20:19:22.186Z,11.77
2022-08-17T20:22:09.465Z,11.53
2022-08-17T20:24:38.934Z,8.93
2022-08-17T20:27:16.496Z,6.87
2022-08-17T20:29:55.256Z,8.03
2022-08-17T20:32:26.237Z,7.17
2022-08-17T20:35:20.792Z,6.73
2022-08-17T20:37:53.961Z,9.93
2022-08-17T20:40:25.940Z,5.43
2022-08-17T20:42:52.748Z,7.13
2022-08-17T20:45:22.121Z,8.03
2022-08-17T20:48:18.737Z,6.70
2022-08-17T20:50:44.049Z,5.77
2022-08-17T20:53:15.217Z,7.63
2022-08-17T20:55:52.626Z,7.60
2022-08-17T20:58:21.192Z,7.37
2022-08-17T21:00:56.910Z,8.67
2022-08-17T21:03:23.345Z,10.07
2022-08-17T21:06:00.348Z,7.80
2022-08-17T21:08:30.663Z,5.83
2022-08-17T21:10:58.478Z,9.50
2022-08-17T21:13:40.955Z,8.07
2022-08-17T21:16:24.331Z,8.83
2022-08-17T21:19:17.811Z,6.60
2022-08-17T21:22:12.657Z,10.87
2022-08-17T21:25:03.152Z,7.33
2022-08-17T21:28:08.366Z,7.00
2022-08-17T21:30:37.107Z,8.87
2022-08-17T21:33:18.647Z,6.27
2022-08-17T21:35:53.869Z,8.30
2022-08-17T21:38:50.286Z,8.33
2022-08-17T21:41:29.538Z,6.00
2022-08-17T21:44:06.393Z,8.33
2022-08-17T21:46:39.102Z,8.93
2022-08-17T21:49:13.444Z,7.27
2022-08-17T21:51:51.383Z,7.77
2022-08-17T21:54:20.446Z,8.93
2022-08-17T21:56:48.460Z,9.13
2022-08-17T21:59:28.820Z,8.20
2022-08-17T22:02:18.165Z,8.93
2022-08-17T22:05:00.316Z,8.00
2022-08-17T22:07:50.766Z,7.10
2022-08-17T22:10:41.905Z,6.20
2022-08-17T22:13:19.878Z,8.63
2022-08-17T22:16:15.243Z,8.97
2022-08-17T22:18:42.837Z,7.30
2022-08-17T22:21:09.308Z,10.33
2022-08-17T22:23:58.635Z,10.77
2022-08-17T22:26:47.102Z,13.40
2022-08-17T22:29:57.366Z,15.03
2022-08-17T22:32:45.073Z,16.50
2022-08-17T22:35:35.740Z,12.07
2022-08-17T22:38:25.384Z,9.60
2022-08-17T22:40:54.480Z,14.67
2022-08-17T22:43:26.055Z,15.93
2022-08-17T22:45:55.694Z,17.20
2022-08-17T22:48:27.153Z,13.43
2022-08-17T22:51:12.372Z,10.83
2022-08-17T22:54:05.551Z,12.37
2022-08-17T22:56:50.898Z,10.47
2022-08-17T22:59:55.556Z,12.50
2022-08-17T23:02:29.941Z,11.83
2022-08-17T23:05:15.758Z,11.07
2022-08-17T23:07:44.964Z,9.80
2022-08-17T23:10:13.291Z,11.00
2022-08-17T23:12:40.310Z,9.53
2022-08-17T23:15:16.901Z,14.37
2022-08-17T23:17:45.044Z,12.20
2022-08-17T23:20:14.162Z,12.53
2022-08-17T23:22:51.794Z,12.13
2022-08-17T23:25:25.822Z,9.63
2022-08-17T23:27:52.516Z,13.93
2022-08-17T23:30:19.295Z,13.30
2022-08-17T23:32:53.354Z,13.03
2022-08-17T23:35:20.360Z,14.90
2022-08-17T23:38:07.526Z,10.10
2022-08-17T23:40:34.094Z,10.03
2022-08-17T23:43:00.568Z,12.83
2022-08-17T23:45:31.273Z,13.27
2022-08-17T23:47:57.645Z,12.40
2022-08-17T23:50:24.965Z,13.07
2022-08-17T23:52:56.441Z,14.23
2022-08-17T23:55:22.873Z,18.00
2022-08-17T23:57:50.010Z,12.83
